sensor_id;sensor_type;location;lat;lon;timestamp;P1;durP1;ratioP1;P2;durP2;ratioP2
24407;SDS011;12542;50.924;4.516;2022-09-09T00:04:40;3.92;;;0.93;;
24407;SDS011;12542;50.924;4.516;2022-09-09T00:10:16;10.57;;;1.02;;
24407;SDS011;12542;50.924;4.516;2022-09-09T00:13:18;2.95;;;0.90;;
24407;SDS011;12542;50.924;4.516;2022-09-09T00:16:38;4.55;;;0.90;;
24407;SDS011;12542;50.924;4.516;2022-09-09T00:21:37;5.40;;;0.85;;
24407;SDS011;12542;50.924;4.516;2022-09-09T00:24:35;6.05;;;0.88;;
24407;SDS011;12542;50.924;4.516;2022-09-09T00:27:14;3.65;;;1.10;;
24407;SDS011;12542;50.924;4.516;2022-09-09T00:33:22;3.80;;;1.23;;
24407;SDS011;12542;50.924;4.516;2022-09-09T00:35:46;5.72;;;0.80;;
24407;SDS011;12542;50.924;4.516;2022-09-09T00:38:16;6.10;;;0.90;;
24407;SDS011;12542;50.924;4.516;2022-09-09T00:50:00;5.55;;;1.00;;
24407;SDS011;12542;50.924;4.516;2022-09-09T00:58:21;4.18;;;1.10;;
24407;SDS011;12542;50.924;4.516;2022-09-09T01:00:50;3.35;;;0.90;;
24407;SDS011;12542;50.924;4.516;2022-09-09T01:11:26;3.58;;;1.10;;
24407;SDS011;12542;50.924;4.516;2022-09-09T01:16:58;5.78;;;0.95;;
24407;SDS011;12542;50.924;4.516;2022-09-09T01:20:10;3.70;;;0.82;;
24407;SDS011;12542;50.924;4.516;2022-09-09T01:22:35;5.45;;;1.30;;
24407;SDS011;12542;50.924;4.516;2022-09-09T01:25:29;7.03;;;0.80;;
24407;SDS011;12542;50.924;4.516;2022-09-09T01:28:27;7.32;;;1.08;;
24407;SDS011;12542;50.924;4.516;2022-09-09T01:30:55;6.15;;;1.50;;
24407;SDS011;12542;50.924;4.516;2022-09-09T01:33:22;3.38;;;0.90;;
24407;SDS011;12542;50.924;4.516;2022-09-09T01:35:50;6.15;;;0.93;;
24407;SDS011;12542;50.924;4.516;2022-09-09T01:38:36;4.70;;;1.17;;
24407;SDS011;12542;50.924;4.516;2022-09-09T01:41:03;7.95;;;1.08;;
24407;SDS011;12542;50.924;4.516;2022-09-09T01:43:30;7.95;;;1.17;;
24407;SDS011;12542;50.924;4.516;2022-09-09T01:45:58;5.55;;;1.00;;
24407;SDS011;12542;50.924;4.516;2022-09-09T01:48:25;3.58;;;1.00;;
24407;SDS011;12542;50.924;4.516;2022-09-09T01:50:52;6.75;;;1.20;;
24407;SDS011;12542;50.924;4.516;2022-09-09T01:53:18;6.25;;;1.33;;
24407;SDS011;12542;50.924;4.516;2022-09-09T01:56:32;4.38;;;1.13;;
24407;SDS011;12542;50.924;4.516;2022-09-09T02:01:35;10.32;;;1.52;;
24407;SDS011;12542;50.924;4.516;2022-09-09T02:04:18;7.43;;;1.58;;
24407;SDS011;12542;50.924;4.516;2022-09-09T02:07:07;12.35;;;1.63;;
24407;SDS011;12542;50.924;4.516;2022-09-09T02:09:58;6.15;;;1.38;;
24407;SDS011;12542;50.924;4.516;2022-09-09T02:12:51;7.57;;;1.70;;
24407;SDS011;12542;50.924;4.516;2022-09-09T02:15:25;6.30;;;1.42;;
24407;SDS011;12542;50.924;4.516;2022-09-09T02:17:55;5.95;;;2.08;;
24407;SDS011;12542;50.924;4.516;2022-09-09T02:20:24;8.40;;;1.83;;
24407;SDS011;12542;50.924;4.516;2022-09-09T02:22:53;9.18;;;1.75;;
24407;SDS011;12542;50.924;4.516;2022-09-09T02:25:21;8.25;;;1.40;;
24407;SDS011;12542;50.924;4.516;2022-09-09T02:27:49;9.00;;;1.23;;
24407;SDS011;12542;50.924;4.516;2022-09-09T02:30:36;7.88;;;1.25;;
24407;SDS011;12542;50.924;4.516;2022-09-09T02:33:05;5.43;;;1.55;;
24407;SDS011;12542;50.924;4.516;2022-09-09T02:35:37;5.05;;;1.40;;
24407;SDS011;12542;50.924;4.516;2022-09-09T02:38:08;5.00;;;1.20;;
24407;SDS011;12542;50.924;4.516;2022-09-09T02:40:37;6.32;;;1.92;;
24407;SDS011;12542;50.924;4.516;2022-09-09T02:43:03;8.32;;;1.88;;
24407;SDS011;12542;50.924;4.516;2022-09-09T02:45:38;7.07;;;1.65;;
24407;SDS011;12542;50.924;4.516;2022-09-09T02:53:37;6.20;;;1.73;;
24407;SDS011;12542;50.924;4.516;2022-09-09T02:56:09;7.22;;;1.35;;
24407;SDS011;12542;50.924;4.516;2022-09-09T02:58:41;6.82;;;1.20;;
24407;SDS011;12542;50.924;4.516;2022-09-09T03:01:08;9.05;;;1.67;;
24407;SDS011;12542;50.924;4.516;2022-09-09T03:03:34;10.07;;;1.40;;
24407;SDS011;12542;50.924;4.516;2022-09-09T03:06:00;6.63;;;1.65;;
24407;SDS011;12542;50.924;4.516;2022-09-09T03:08:26;6.88;;;1.98;;
24407;SDS011;12542;50.924;4.516;2022-09-09T03:10:53;6.60;;;1.42;;
24407;SDS011;12542;50.924;4.516;2022-09-09T03:13:23;10.30;;;1.48;;
24407;SDS011;12542;50.924;4.516;2022-09-09T03:15:50;11.23;;;1.60;;
24407;SDS011;12542;50.924;4.516;2022-09-09T03:18:16;7.25;;;1.10;;
24407;SDS011;12542;50.924;4.516;2022-09-09T03:20:42;8.32;;;1.75;;
24407;SDS011;12542;50.924;4.516;2022-09-09T03:23:09;9.02;;;1.88;;
24407;SDS011;12542;50.924;4.516;2022-09-09T03:25:34;9.70;;;1.50;;
24407;SDS011;12542;50.924;4.516;2022-09-09T03:28:01;7.47;;;2.47;;
24407;SDS011;12542;50.924;4.516;2022-09-09T03:30:27;9.73;;;2.13;;
24407;SDS011;12542;50.924;4.516;2022-09-09T03:32:54;10.02;;;1.58;;
24407;SDS011;12542;50.924;4.516;2022-09-09T03:35:20;10.68;;;1.80;;
24407;SDS011;12542;50.924;4.516;2022-09-09T03:37:46;9.43;;;1.30;;
24407;SDS011;12542;50.924;4.516;2022-09-09T03:40:12;11.25;;;1.52;;
24407;SDS011;12542;50.924;4.516;2022-09-09T03:42:38;12.68;;;1.83;;
24407;SDS011;12542;50.924;4.516;2022-09-09T03:45:04;10.95;;;1.95;;
24407;SDS011;12542;50.924;4.516;2022-09-09T03:47:31;9.32;;;1.75;;
24407;SDS011;12542;50.924;4.516;2022-09-09T03:49:58;16.13;;;2.30;;
24407;SDS011;12542;50.924;4.516;2022-09-09T03:52:24;8.57;;;1.60;;
24407;SDS011;12542;50.924;4.516;2022-09-09T03:54:51;8.43;;;1.77;;
24407;SDS011;12542;50.924;4.516;2022-09-09T03:57:18;9.35;;;1.60;;
24407;SDS011;12542;50.924;4.516;2022-09-09T03:59:44;6.85;;;1.50;;
24407;SDS011;12542;50.924;4.516;2022-09-09T04:02:09;12.18;;;2.00;;
24407;SDS011;12542;50.924;4.516;2022-09-09T04:04:35;6.47;;;1.65;;
24407;SDS011;12542;50.924;4.516;2022-09-09T04:07:01;9.40;;;2.47;;
24407;SDS011;12542;50.924;4.516;2022-09-09T04:09:26;7.03;;;1.83;;
24407;SDS011;12542;50.924;4.516;2022-09-09T04:11:52;8.35;;;1.98;;
24407;SDS011;12542;50.924;4.516;2022-09-09T04:14:19;10.32;;;1.92;;
24407;SDS011;12542;50.924;4.516;2022-09-09T04:16:45;9.00;;;1.85;;
24407;SDS011;12542;50.924;4.516;2022-09-09T04:19:12;12.23;;;2.03;;
24407;SDS011;12542;50.924;4.516;2022-09-09T04:21:39;10.00;;;1.77;;
24407;SDS011;12542;50.924;4.516;2022-09-09T04:24:06;11.18;;;2.38;;
24407;SDS011;12542;50.924;4.516;2022-09-09T04:26:33;10.32;;;2.00;;
24407;SDS011;12542;50.924;4.516;2022-09-09T04:29:01;10.43;;;2.25;;
24407;SDS011;12542;50.924;4.516;2022-09-09T04:31:27;9.18;;;1.65;;
24407;SDS011;12542;50.924;4.516;2022-09-09T04:33:53;8.68;;;1.67;;
24407;SDS011;12542;50.924;4.516;2022-09-09T04:36:19;8.98;;;1.63;;
24407;SDS011;12542;50.924;4.516;2022-09-09T04:38:45;14.50;;;2.30;;
24407;SDS011;12542;50.924;4.516;2022-09-09T04:41:12;8.85;;;1.50;;
24407;SDS011;12542;50.924;4.516;2022-09-09T04:43:38;17.33;;;2.85;;
24407;SDS011;12542;50.924;4.516;2022-09-09T04:46:04;11.50;;;1.85;;
24407;SDS011;12542;50.924;4.516;2022-09-09T04:48:31;10.70;;;2.00;;
24407;SDS011;12542;50.924;4.516;2022-09-09T04:50:57;5.82;;;1.45;;
24407;SDS011;12542;50.924;4.516;2022-09-09T04:53:25;15.45;;;3.05;;
24407;SDS011;12542;50.924;4.516;2022-09-09T04:55:51;12.75;;;1.75;;
24407;SDS011;12542;50.924;4.516;2022-09-09T04:58:26;10.57;;;2.00;;
24407;SDS011;12542;50.924;4.516;2022-09-09T05:00:51;7.07;;;1.95;;
24407;SDS011;12542;50.924;4.516;2022-09-09T05:03:17;15.02;;;2.47;;
24407;SDS011;12542;50.924;4.516;2022-09-09T05:05:44;11.75;;;2.50;;
24407;SDS011;12542;50.924;4.516;2022-09-09T05:08:10;14.80;;;6.03;;
24407;SDS011;12542;50.924;4.516;2022-09-09T05:10:37;9.32;;;2.15;;
24407;SDS011;12542;50.924;4.516;2022-09-09T05:13:04;13.02;;;2.40;;
24407;SDS011;12542;50.924;4.516;2022-09-09T05:15:31;9.68;;;2.30;;
24407;SDS011;12542;50.924;4.516;2022-09-09T05:17:58;7.95;;;2.00;;
24407;SDS011;12542;50.924;4.516;2022-09-09T05:20:25;14.27;;;3.00;;
24407;SDS011;12542;50.924;4.516;2022-09-09T05:22:55;7.15;;;2.05;;
24407;SDS011;12542;50.924;4.516;2022-09-09T05:25:24;11.73;;;2.20;;
24407;SDS011;12542;50.924;4.516;2022-09-09T05:27:52;11.95;;;2.55;;
24407;SDS011;12542;50.924;4.516;2022-09-09T05:30:18;11.43;;;2.28;;
24407;SDS011;12542;50.924;4.516;2022-09-09T05:32:45;7.20;;;2.10;;
24407;SDS011;12542;50.924;4.516;2022-09-09T05:35:12;8.68;;;2.28;;
24407;SDS011;12542;50.924;4.516;2022-09-09T05:37:38;10.82;;;1.92;;
24407;SDS011;12542;50.924;4.516;2022-09-09T05:40:04;8.85;;;1.83;;
24407;SDS011;12542;50.924;4.516;2022-09-09T05:42:31;12.90;;;2.05;;
24407;SDS011;12542;50.924;4.516;2022-09-09T05:44:57;11.00;;;2.20;;
24407;SDS011;12542;50.924;4.516;2022-09-09T05:47:23;9.82;;;2.53;;
24407;SDS011;12542;50.924;4.516;2022-09-09T05:49:49;8.05;;;2.10;;
24407;SDS011;12542;50.924;4.516;2022-09-09T05:52:17;14.88;;;2.38;;
24407;SDS011;12542;50.924;4.516;2022-09-09T05:54:43;9.98;;;2.20;;
24407;SDS011;12542;50.924;4.516;2022-09-09T05:57:09;17.13;;;2.47;;
24407;SDS011;12542;50.924;4.516;2022-09-09T05:59:34;11.93;;;2.28;;
24407;SDS011;12542;50.924;4.516;2022-09-09T06:02:00;12.43;;;1.80;;
24407;SDS011;12542;50.924;4.516;2022-09-09T06:04:26;8.15;;;2.00;;
24407;SDS011;12542;50.924;4.516;2022-09-09T06:06:52;14.18;;;2.20;;
24407;SDS011;12542;50.924;4.516;2022-09-09T06:09:17;8.80;;;2.42;;
24407;SDS011;12542;50.924;4.516;2022-09-09T06:11:43;10.65;;;2.50;;
24407;SDS011;12542;50.924;4.516;2022-09-09T06:14:10;13.18;;;1.88;;
24407;SDS011;12542;50.924;4.516;2022-09-09T06:16:36;13.15;;;2.20;;
24407;SDS011;12542;50.924;4.516;2022-09-09T06:19:08;8.50;;;1.80;;
24407;SDS011;12542;50.924;4.516;2022-09-09T06:21:35;10.50;;;2.05;;
24407;SDS011;12542;50.924;4.516;2022-09-09T06:24:05;9.98;;;1.52;;
24407;SDS011;12542;50.924;4.516;2022-09-09T06:26:32;12.45;;;2.38;;
24407;SDS011;12542;50.924;4.516;2022-09-09T06:29:05;14.05;;;2.05;;
24407;SDS011;12542;50.924;4.516;2022-09-09T06:31:32;7.13;;;1.58;;
24407;SDS011;12542;50.924;4.516;2022-09-09T06:33:59;11.57;;;1.85;;
24407;SDS011;12542;50.924;4.516;2022-09-09T06:36:29;11.38;;;1.65;;
24407;SDS011;12542;50.924;4.516;2022-09-09T06:38:57;11.73;;;2.33;;
24407;SDS011;12542;50.924;4.516;2022-09-09T06:41:25;14.15;;;2.83;;
24407;SDS011;12542;50.924;4.516;2022-09-09T06:43:52;7.18;;;1.85;;
24407;SDS011;12542;50.924;4.516;2022-09-09T06:46:19;12.25;;;2.22;;
24407;SDS011;12542;50.924;4.516;2022-09-09T06:48:52;13.43;;;1.77;;
24407;SDS011;12542;50.924;4.516;2022-09-09T06:51:20;7.57;;;1.52;;
24407;SDS011;12542;50.924;4.516;2022-09-09T06:53:49;13.63;;;1.63;;
24407;SDS011;12542;50.924;4.516;2022-09-09T06:58:44;10.88;;;2.20;;
24407;SDS011;12542;50.924;4.516;2022-09-09T07:01:11;7.35;;;1.33;;
24407;SDS011;12542;50.924;4.516;2022-09-09T07:03:39;14.18;;;1.98;;
24407;SDS011;12542;50.924;4.516;2022-09-09T07:06:06;6.57;;;2.17;;
24407;SDS011;12542;50.924;4.516;2022-09-09T07:08:32;7.97;;;1.75;;
24407;SDS011;12542;50.924;4.516;2022-09-09T07:11:05;10.43;;;1.73;;
24407;SDS011;12542;50.924;4.516;2022-09-09T07:13:32;9.87;;;1.97;;
24407;SDS011;12542;50.924;4.516;2022-09-09T07:16:06;10.00;;;1.75;;
24407;SDS011;12542;50.924;4.516;2022-09-09T07:18:33;6.00;;;1.80;;
24407;SDS011;12542;50.924;4.516;2022-09-09T07:21:00;12.27;;;2.08;;
24407;SDS011;12542;50.924;4.516;2022-09-09T07:23:28;10.48;;;1.73;;
24407;SDS011;12542;50.924;4.516;2022-09-09T07:25:55;11.02;;;1.77;;
24407;SDS011;12542;50.924;4.516;2022-09-09T07:28:21;12.45;;;2.45;;
24407;SDS011;12542;50.924;4.516;2022-09-09T07:30:58;10.55;;;1.50;;
24407;SDS011;12542;50.924;4.516;2022-09-09T07:33:27;9.65;;;1.40;;
24407;SDS011;12542;50.924;4.516;2022-09-09T07:38:44;11.50;;;1.88;;
24407;SDS011;12542;50.924;4.516;2022-09-09T07:41:16;8.07;;;2.10;;
24407;SDS011;12542;50.924;4.516;2022-09-09T07:43:49;8.00;;;1.23;;
24407;SDS011;12542;50.924;4.516;2022-09-09T07:46:16;11.00;;;1.98;;
24407;SDS011;12542;50.924;4.516;2022-09-09T07:48:48;10.95;;;1.75;;
24407;SDS011;12542;50.924;4.516;2022-09-09T07:51:19;6.55;;;1.25;;
24407;SDS011;12542;50.924;4.516;2022-09-09T07:53:50;9.77;;;1.80;;
24407;SDS011;12542;50.924;4.516;2022-09-09T07:56:18;10.55;;;1.50;;
24407;SDS011;12542;50.924;4.516;2022-09-09T07:58:47;10.18;;;1.60;;
24407;SDS011;12542;50.924;4.516;2022-09-09T08:01:15;9.60;;;1.80;;
24407;SDS011;12542;50.924;4.516;2022-09-09T08:03:47;10.68;;;1.65;;
24407;SDS011;12542;50.924;4.516;2022-09-09T08:06:19;8.25;;;1.70;;
24407;SDS011;12542;50.924;4.516;2022-09-09T08:08:44;8.38;;;1.30;;
24407;SDS011;12542;50.924;4.516;2022-09-09T08:11:14;9.38;;;1.30;;
24407;SDS011;12542;50.924;4.516;2022-09-09T08:13:43;8.02;;;1.88;;
24407;SDS011;12542;50.924;4.516;2022-09-09T08:16:10;11.88;;;1.65;;
24407;SDS011;12542;50.924;4.516;2022-09-09T08:18:41;7.22;;;1.80;;
24407;SDS011;12542;50.924;4.516;2022-09-09T08:21:08;6.75;;;1.85;;
24407;SDS011;12542;50.924;4.516;2022-09-09T08:23:42;7.65;;;1.60;;
24407;SDS011;12542;50.924;4.516;2022-09-09T08:26:11;10.43;;;1.48;;
24407;SDS011;12542;50.924;4.516;2022-09-09T08:28:39;7.85;;;1.40;;
24407;SDS011;12542;50.924;4.516;2022-09-09T08:31:09;6.55;;;1.65;;
24407;SDS011;12542;50.924;4.516;2022-09-09T08:33:40;7.85;;;1.52;;
24407;SDS011;12542;50.924;4.516;2022-09-09T08:36:08;6.80;;;1.58;;
24407;SDS011;12542;50.924;4.516;2022-09-09T08:38:35;7.65;;;1.80;;
24407;SDS011;12542;50.924;4.516;2022-09-09T08:43:58;8.27;;;1.85;;
24407;SDS011;12542;50.924;4.516;2022-09-09T08:49:02;8.82;;;2.20;;
24407;SDS011;12542;50.924;4.516;2022-09-09T08:51:39;9.75;;;1.48;;
24407;SDS011;12542;50.924;4.516;2022-09-09T08:54:06;10.63;;;2.13;;
24407;SDS011;12542;50.924;4.516;2022-09-09T08:56:34;9.18;;;1.52;;
24407;SDS011;12542;50.924;4.516;2022-09-09T08:59:01;6.78;;;1.60;;
24407;SDS011;12542;50.924;4.516;2022-09-09T09:12:52;13.70;;;2.00;;
24407;SDS011;12542;50.924;4.516;2022-09-09T09:15:26;9.75;;;1.88;;
24407;SDS011;12542;50.924;4.516;2022-09-09T09:18:03;10.15;;;2.17;;
24407;SDS011;12542;50.924;4.516;2022-09-09T09:20:42;9.52;;;1.67;;
24407;SDS011;12542;50.924;4.516;2022-09-09T09:23:17;8.63;;;1.67;;
24407;SDS011;12542;50.924;4.516;2022-09-09T09:25:48;11.98;;;2.05;;
24407;SDS011;12542;50.924;4.516;2022-09-09T09:28:18;8.35;;;1.60;;
24407;SDS011;12542;50.924;4.516;2022-09-09T09:30:53;7.03;;;1.80;;
24407;SDS011;12542;50.924;4.516;2022-09-09T09:35:54;9.95;;;1.80;;
24407;SDS011;12542;50.924;4.516;2022-09-09T09:38:23;9.65;;;1.98;;
24407;SDS011;12542;50.924;4.516;2022-09-09T09:40:57;9.20;;;1.80;;
24407;SDS011;12542;50.924;4.516;2022-09-09T09:43:34;8.23;;;2.15;;
24407;SDS011;12542;50.924;4.516;2022-09-09T09:46:04;6.55;;;1.33;;
24407;SDS011;12542;50.924;4.516;2022-09-09T09:48:42;6.20;;;1.67;;
24407;SDS011;12542;50.924;4.516;2022-09-09T09:51:09;7.30;;;2.42;;
24407;SDS011;12542;50.924;4.516;2022-09-09T09:53:40;9.68;;;1.70;;
24407;SDS011;12542;50.924;4.516;2022-09-09T09:58:47;8.52;;;1.98;;
24407;SDS011;12542;50.924;4.516;2022-09-09T10:01:29;6.88;;;1.80;;
24407;SDS011;12542;50.924;4.516;2022-09-09T10:04:18;10.30;;;2.72;;
24407;SDS011;12542;50.924;4.516;2022-09-09T10:06:48;5.03;;;1.75;;
24407;SDS011;12542;50.924;4.516;2022-09-09T10:17:54;11.35;;;1.88;;
24407;SDS011;12542;50.924;4.516;2022-09-09T10:20:45;8.48;;;1.58;;
24407;SDS011;12542;50.924;4.516;2022-09-09T10:35:33;6.35;;;1.70;;
24407;SDS011;12542;50.924;4.516;2022-09-09T10:43:33;7.50;;;1.80;;
24407;SDS011;12542;50.924;4.516;2022-09-09T10:46:27;5.60;;;1.90;;
24407;SDS011;12542;50.924;4.516;2022-09-09T10:54:56;5.90;;;1.48;;
24407;SDS011;12542;50.924;4.516;2022-09-09T10:57:31;8.00;;;1.50;;
24407;SDS011;12542;50.924;4.516;2022-09-09T11:00:03;6.60;;;1.60;;
24407;SDS011;12542;50.924;4.516;2022-09-09T11:02:33;10.07;;;2.17;;
24407;SDS011;12542;50.924;4.516;2022-09-09T11:05:08;8.85;;;1.52;;
24407;SDS011;12542;50.924;4.516;2022-09-09T11:07:44;4.45;;;1.15;;
24407;SDS011;12542;50.924;4.516;2022-09-09T11:12:57;9.82;;;1.38;;
24407;SDS011;12542;50.924;4.516;2022-09-09T11:15:35;6.53;;;1.40;;
24407;SDS011;12542;50.924;4.516;2022-09-09T11:18:06;5.85;;;1.50;;
24407;SDS011;12542;50.924;4.516;2022-09-09T11:20:38;4.25;;;1.13;;
24407;SDS011;12542;50.924;4.516;2022-09-09T11:23:09;3.08;;;0.98;;
24407;SDS011;12542;50.924;4.516;2022-09-09T11:25:51;7.90;;;1.50;;
24407;SDS011;12542;50.924;4.516;2022-09-09T11:28:32;7.57;;;1.50;;
24407;SDS011;12542;50.924;4.516;2022-09-09T11:44:43;5.50;;;1.05;;
24407;SDS011;12542;50.924;4.516;2022-09-09T11:47:20;5.07;;;1.38;;
24407;SDS011;12542;50.924;4.516;2022-09-09T11:50:08;4.82;;;0.93;;
24407;SDS011;12542;50.924;4.516;2022-09-09T11:55:26;5.38;;;0.98;;
24407;SDS011;12542;50.924;4.516;2022-09-09T11:58:04;5.28;;;1.20;;
24407;SDS011;12542;50.924;4.516;2022-09-09T12:03:51;7.97;;;1.50;;
24407;SDS011;12542;50.924;4.516;2022-09-09T12:06:46;3.95;;;1.15;;
24407;SDS011;12542;50.924;4.516;2022-09-09T12:08:58;5.13;;;1.55;;
24407;SDS011;12542;50.924;4.516;2022-09-09T12:11:32;5.93;;;1.05;;
24407;SDS011;12542;50.924;4.516;2022-09-09T12:13:58;6.18;;;0.85;;
24407;SDS011;12542;50.924;4.516;2022-09-09T12:16:31;6.57;;;1.13;;
24407;SDS011;12542;50.924;4.516;2022-09-09T12:19:24;7.28;;;1.10;;
24407;SDS011;12542;50.924;4.516;2022-09-09T12:21:54;5.72;;;1.30;;
24407;SDS011;12542;50.924;4.516;2022-09-09T12:27:13;5.70;;;1.10;;
24407;SDS011;12542;50.924;4.516;2022-09-09T12:30:11;4.93;;;0.88;;
24407;SDS011;12542;50.924;4.516;2022-09-09T12:32:40;7.85;;;1.08;;
24407;SDS011;12542;50.924;4.516;2022-09-09T12:35:22;5.70;;;1.30;;
24407;SDS011;12542;50.924;4.516;2022-09-09T12:37:56;8.13;;;1.42;;
24407;SDS011;12542;50.924;4.516;2022-09-09T12:40:32;6.43;;;1.20;;
24407;SDS011;12542;50.924;4.516;2022-09-09T12:43:20;5.95;;;1.30;;
24407;SDS011;12542;50.924;4.516;2022-09-09T12:45:48;5.28;;;1.00;;
24407;SDS011;12542;50.924;4.516;2022-09-09T12:48:22;8.77;;;1.58;;
24407;SDS011;12542;50.924;4.516;2022-09-09T12:50:54;6.72;;;1.67;;
24407;SDS011;12542;50.924;4.516;2022-09-09T12:53:32;4.85;;;1.20;;
24407;SDS011;12542;50.924;4.516;2022-09-09T12:56:01;7.40;;;1.13;;
24407;SDS011;12542;50.924;4.516;2022-09-09T12:58:35;6.38;;;1.50;;
24407;SDS011;12542;50.924;4.516;2022-09-09T13:01:04;5.43;;;1.15;;
24407;SDS011;12542;50.924;4.516;2022-09-09T13:03:31;7.13;;;1.17;;
24407;SDS011;12542;50.924;4.516;2022-09-09T13:05:59;5.07;;;0.82;;
24407;SDS011;12542;50.924;4.516;2022-09-09T13:08:37;5.03;;;0.90;;
24407;SDS011;12542;50.924;4.516;2022-09-09T13:11:04;7.03;;;1.27;;
24407;SDS011;12542;50.924;4.516;2022-09-09T13:13:35;3.03;;;1.00;;
24407;SDS011;12542;50.924;4.516;2022-09-09T13:16:03;5.15;;;1.25;;
24407;SDS011;12542;50.924;4.516;2022-09-09T13:18:34;4.20;;;0.82;;
24407;SDS011;12542;50.924;4.516;2022-09-09T13:21:03;3.78;;;0.85;;
24407;SDS011;12542;50.924;4.516;2022-09-09T13:23:30;4.15;;;1.10;;
24407;SDS011;12542;50.924;4.516;2022-09-09T13:26:18;3.55;;;0.68;;
24407;SDS011;12542;50.924;4.516;2022-09-09T13:28:50;6.28;;;1.08;;
24407;SDS011;12542;50.924;4.516;2022-09-09T13:33:57;3.72;;;1.02;;
24407;SDS011;12542;50.924;4.516;2022-09-09T13:36:30;3.72;;;0.90;;
24407;SDS011;12542;50.924;4.516;2022-09-09T13:38:59;3.97;;;1.02;;
24407;SDS011;12542;50.924;4.516;2022-09-09T13:41:41;5.00;;;0.95;;
24407;SDS011;12542;50.924;4.516;2022-09-09T13:44:28;4.57;;;0.93;;
24407;SDS011;12542;50.924;4.516;2022-09-09T13:49:27;5.07;;;1.50;;
24407;SDS011;12542;50.924;4.516;2022-09-09T13:52:05;5.72;;;0.90;;
24407;SDS011;12542;50.924;4.516;2022-09-09T13:54:35;3.47;;;0.95;;
24407;SDS011;12542;50.924;4.516;2022-09-09T13:57:01;3.55;;;0.65;;
24407;SDS011;12542;50.924;4.516;2022-09-09T13:59:27;6.90;;;1.00;;
24407;SDS011;12542;50.924;4.516;2022-09-09T14:01:55;3.72;;;0.90;;
24407;SDS011;12542;50.924;4.516;2022-09-09T14:04:21;2.60;;;0.75;;
24407;SDS011;12542;50.924;4.516;2022-09-09T14:06:47;4.25;;;1.20;;
24407;SDS011;12542;50.924;4.516;2022-09-09T14:09:15;5.75;;;1.10;;
24407;SDS011;12542;50.924;4.516;2022-09-09T14:11:43;2.65;;;0.70;;
24407;SDS011;12542;50.924;4.516;2022-09-09T14:14:10;2.85;;;0.80;;
24407;SDS011;12542;50.924;4.516;2022-09-09T14:16:36;2.88;;;0.70;;
24407;SDS011;12542;50.924;4.516;2022-09-09T14:19:02;3.85;;;0.80;;
24407;SDS011;12542;50.924;4.516;2022-09-09T14:21:28;3.80;;;0.90;;
24407;SDS011;12542;50.924;4.516;2022-09-09T14:23:54;6.40;;;0.95;;
24407;SDS011;12542;50.924;4.516;2022-09-09T14:26:20;4.65;;;1.25;;
24407;SDS011;12542;50.924;4.516;2022-09-09T14:28:46;5.38;;;1.10;;
24407;SDS011;12542;50.924;4.516;2022-09-09T14:31:13;3.80;;;0.80;;
24407;SDS011;12542;50.924;4.516;2022-09-09T14:33:40;2.70;;;0.80;;
24407;SDS011;12542;50.924;4.516;2022-09-09T14:36:09;4.50;;;1.40;;
24407;SDS011;12542;50.924;4.516;2022-09-09T14:38:36;5.88;;;1.20;;
24407;SDS011;12542;50.924;4.516;2022-09-09T14:41:06;3.10;;;1.13;;
24407;SDS011;12542;50.924;4.516;2022-09-09T14:43:39;3.50;;;1.10;;
24407;SDS011;12542;50.924;4.516;2022-09-09T14:46:06;6.22;;;1.15;;
24407;SDS011;12542;50.924;4.516;2022-09-09T14:48:34;6.15;;;1.33;;
24407;SDS011;12542;50.924;4.516;2022-09-09T14:51:13;5.18;;;1.10;;
24407;SDS011;12542;50.924;4.516;2022-09-09T14:53:41;2.97;;;0.80;;
24407;SDS011;12542;50.924;4.516;2022-09-09T14:56:09;6.25;;;1.02;;
24407;SDS011;12542;50.924;4.516;2022-09-09T14:58:37;5.53;;;1.00;;
24407;SDS011;12542;50.924;4.516;2022-09-09T15:01:06;2.88;;;0.82;;
24407;SDS011;12542;50.924;4.516;2022-09-09T15:03:35;4.15;;;1.02;;
24407;SDS011;12542;50.924;4.516;2022-09-09T15:06:09;3.70;;;0.90;;
24407;SDS011;12542;50.924;4.516;2022-09-09T15:08:40;3.45;;;0.80;;
24407;SDS011;12542;50.924;4.516;2022-09-09T15:11:08;5.78;;;1.20;;
24407;SDS011;12542;50.924;4.516;2022-09-09T15:13:35;6.70;;;1.13;;
24407;SDS011;12542;50.924;4.516;2022-09-09T15:16:05;2.70;;;0.88;;
24407;SDS011;12542;50.924;4.516;2022-09-09T15:18:35;4.35;;;1.23;;
24407;SDS011;12542;50.924;4.516;2022-09-09T15:21:04;2.72;;;0.88;;
24407;SDS011;12542;50.924;4.516;2022-09-09T15:23:36;4.93;;;1.08;;
24407;SDS011;12542;50.924;4.516;2022-09-09T15:26:03;3.88;;;0.82;;
24407;SDS011;12542;50.924;4.516;2022-09-09T15:28:29;4.32;;;1.10;;
24407;SDS011;12542;50.924;4.516;2022-09-09T15:31:10;3.77;;;0.90;;
24407;SDS011;12542;50.924;4.516;2022-09-09T15:33:46;3.60;;;0.82;;
24407;SDS011;12542;50.924;4.516;2022-09-09T15:36:20;5.05;;;1.00;;
24407;SDS011;12542;50.924;4.516;2022-09-09T15:38:47;3.50;;;0.85;;
24407;SDS011;12542;50.924;4.516;2022-09-09T15:41:13;5.82;;;0.98;;
24407;SDS011;12542;50.924;4.516;2022-09-09T15:43:43;5.03;;;1.10;;
24407;SDS011;12542;50.924;4.516;2022-09-09T15:46:21;6.35;;;1.30;;
24407;SDS011;12542;50.924;4.516;2022-09-09T15:48:54;5.65;;;1.10;;
24407;SDS011;12542;50.924;4.516;2022-09-09T15:51:32;4.45;;;1.15;;
24407;SDS011;12542;50.924;4.516;2022-09-09T15:53:58;5.07;;;1.60;;
24407;SDS011;12542;50.924;4.516;2022-09-09T15:56:25;6.32;;;1.20;;
24407;SDS011;12542;50.924;4.516;2022-09-09T15:58:52;7.85;;;1.40;;
24407;SDS011;12542;50.924;4.516;2022-09-09T16:01:19;4.80;;;1.02;;
24407;SDS011;12542;50.924;4.516;2022-09-09T16:03:48;7.10;;;1.48;;
24407;SDS011;12542;50.924;4.516;2022-09-09T16:06:16;4.47;;;1.10;;
24407;SDS011;12542;50.924;4.516;2022-09-09T16:08:44;3.92;;;1.02;;
24407;SDS011;12542;50.924;4.516;2022-09-09T16:11:12;6.15;;;1.40;;
24407;SDS011;12542;50.924;4.516;2022-09-09T16:13:41;5.97;;;1.17;;
24407;SDS011;12542;50.924;4.516;2022-09-09T16:16:09;4.25;;;1.10;;
24407;SDS011;12542;50.924;4.516;2022-09-09T16:18:44;5.65;;;1.08;;
24407;SDS011;12542;50.924;4.516;2022-09-09T16:21:16;7.75;;;1.10;;
24407;SDS011;12542;50.924;4.516;2022-09-09T16:23:59;3.65;;;1.20;;
24407;SDS011;12542;50.924;4.516;2022-09-09T16:26:27;4.63;;;1.10;;
24407;SDS011;12542;50.924;4.516;2022-09-09T16:28:54;4.68;;;1.08;;
24407;SDS011;12542;50.924;4.516;2022-09-09T16:31:24;4.03;;;1.10;;
24407;SDS011;12542;50.924;4.516;2022-09-09T16:33:51;5.60;;;1.27;;
24407;SDS011;12542;50.924;4.516;2022-09-09T16:36:18;3.85;;;0.75;;
24407;SDS011;12542;50.924;4.516;2022-09-09T16:38:46;3.03;;;1.10;;
24407;SDS011;12542;50.924;4.516;2022-09-09T16:41:12;2.97;;;0.90;;
24407;SDS011;12542;50.924;4.516;2022-09-09T16:43:39;2.70;;;0.88;;
24407;SDS011;12542;50.924;4.516;2022-09-09T16:46:13;7.03;;;1.23;;
24407;SDS011;12542;50.924;4.516;2022-09-09T16:48:41;3.80;;;0.93;;
24407;SDS011;12542;50.924;4.516;2022-09-09T16:51:11;3.83;;;1.20;;
24407;SDS011;12542;50.924;4.516;2022-09-09T16:53:42;5.00;;;1.00;;
24407;SDS011;12542;50.924;4.516;2022-09-09T16:56:12;2.92;;;1.00;;
24407;SDS011;12542;50.924;4.516;2022-09-09T16:58:39;3.83;;;1.00;;
24407;SDS011;12542;50.924;4.516;2022-09-09T17:01:05;4.85;;;1.20;;
24407;SDS011;12542;50.924;4.516;2022-09-09T17:03:31;3.67;;;1.30;;
24407;SDS011;12542;50.924;4.516;2022-09-09T17:05:58;4.07;;;1.27;;
24407;SDS011;12542;50.924;4.516;2022-09-09T17:08:28;4.25;;;1.33;;
24407;SDS011;12542;50.924;4.516;2022-09-09T17:10:57;3.72;;;0.98;;
24407;SDS011;12542;50.924;4.516;2022-09-09T17:13:24;3.00;;;0.98;;
24407;SDS011;12542;50.924;4.516;2022-09-09T17:15:51;4.63;;;0.73;;
24407;SDS011;12542;50.924;4.516;2022-09-09T17:18:17;2.65;;;0.70;;
24407;SDS011;12542;50.924;4.516;2022-09-09T17:20:43;3.58;;;0.80;;
24407;SDS011;12542;50.924;4.516;2022-09-09T17:23:10;2.85;;;0.82;;